createdAt,value
2019-05-17T00:01:46.871Z,21.87
2019-05-17T00:04:16.701Z,22.17
2019-05-17T00:06:47.658Z,22.60
2019-05-17T00:09:17.704Z,22.73
2019-05-17T00:11:59.611Z,22.20
2019-05-17T00:14:28.753Z,22.70
2019-05-17T00:16:58.216Z,23.77
2019-05-17T00:19:27.954Z,22.53
2019-05-17T00:22:07.451Z,23.83
2019-05-17T00:24:37.157Z,23.23
2019-05-17T00:27:06.742Z,23.83
2019-05-17T00:29:37.088Z,24.33
2019-05-17T00:32:17.107Z,23.60
2019-05-17T00:34:47.002Z,24.77
2019-05-17T00:37:17.401Z,23.43
2019-05-17T00:39:47.219Z,22.10
2019-05-17T00:42:27.713Z,22.93
2019-05-17T00:44:57.104Z,23.53
2019-05-17T00:47:26.539Z,23.20
2019-05-17T00:49:56.995Z,22.67
2019-05-17T00:52:36.973Z,21.00
2019-05-17T00:55:06.883Z,23.57
2019-05-17T00:57:36.910Z,23.33
2019-05-17T01:00:08.621Z,21.77
2019-05-17T01:02:47.047Z,22.20
2019-05-17T01:05:17.102Z,22.63
2019-05-17T01:07:48.349Z,22.77
2019-05-17T01:10:18.016Z,20.90
2019-05-17T01:12:58.441Z,23.17
2019-05-17T01:15:27.647Z,22.37
2019-05-17T01:17:56.879Z,23.27
2019-05-17T01:20:27.708Z,23.33
2019-05-17T01:23:07.609Z,23.70
2019-05-17T01:25:37.842Z,23.00
2019-05-17T01:28:07.743Z,23.83
2019-05-17T01:30:37.743Z,23.67
2019-05-17T01:33:07.139Z,21.90
2019-05-17T01:35:37.384Z,24.80
2019-05-17T01:38:07.571Z,23.03
2019-05-17T01:40:37.409Z,22.13
2019-05-17T01:43:16.678Z,22.73
2019-05-17T01:45:48.133Z,21.93
2019-05-17T01:48:17.401Z,21.97
2019-05-17T01:50:46.606Z,23.07
2019-05-17T01:53:26.893Z,22.67
2019-05-17T01:55:56.790Z,21.83
2019-05-17T01:58:27.080Z,23.80
2019-05-17T02:01:17.262Z,23.03
2019-05-17T02:03:46.902Z,22.90
2019-05-17T02:06:16.694Z,22.80
2019-05-17T02:08:47.566Z,24.03
2019-05-17T02:11:27.821Z,24.77
2019-05-17T02:13:57.328Z,23.53
2019-05-17T02:16:26.835Z,24.87
2019-05-17T02:18:58.263Z,24.07
2019-05-17T02:21:39.151Z,21.93
2019-05-17T02:24:08.750Z,24.40
2019-05-17T02:26:37.941Z,23.80
2019-05-17T02:29:07.120Z,24.70
2019-05-17T02:31:46.046Z,25.47
2019-05-17T02:34:15.695Z,25.27
2019-05-17T02:36:46.554Z,24.03
2019-05-17T02:39:16.383Z,24.23
2019-05-17T02:41:54.759Z,25.37
2019-05-17T02:44:24.125Z,24.77
2019-05-17T02:46:53.897Z,23.47
2019-05-17T02:49:23.634Z,24.77
2019-05-17T02:52:05.932Z,24.77
2019-05-17T02:54:47.222Z,24.23
2019-05-17T02:57:17.535Z,25.23
2019-05-17T02:59:47.157Z,25.27
2019-05-17T03:02:16.294Z,25.93
2019-05-17T03:05:06.195Z,25.17
2019-05-17T03:07:35.336Z,26.87
2019-05-17T03:10:20.987Z,25.73
2019-05-17T03:12:36.322Z,25.63
2019-05-17T03:15:16.150Z,29.93
2019-05-17T03:17:45.555Z,26.13
2019-05-17T03:20:16.591Z,26.77
2019-05-17T03:22:46.584Z,25.33
2019-05-17T03:25:25.573Z,28.17
2019-05-17T03:27:54.744Z,26.70
2019-05-17T03:30:27.780Z,27.03
2019-05-17T03:32:57.683Z,26.80
2019-05-17T03:35:38.349Z,27.47
2019-05-17T03:38:07.279Z,25.33
2019-05-17T03:41:03.504Z,26.53
2019-05-17T03:43:22.811Z,27.07
2019-05-17T03:45:53.369Z,26.47
2019-05-17T03:48:23.139Z,26.37
2019-05-17T03:50:57.211Z,26.23
2019-05-17T03:53:44.163Z,26.53
2019-05-17T03:56:13.337Z,26.33
2019-05-17T03:58:43.369Z,23.80
2019-05-17T04:01:14.034Z,26.47
2019-05-17T04:03:43.653Z,26.37
2019-05-17T04:06:13.446Z,25.60
2019-05-17T04:08:42.744Z,26.07
2019-05-17T04:11:22.135Z,24.33
2019-05-17T04:13:54.183Z,27.10
2019-05-17T04:16:25.656Z,26.33
2019-05-17T04:18:57.638Z,25.40
2019-05-17T04:21:27.140Z,25.03
2019-05-17T04:26:44.061Z,24.27
2019-05-17T04:29:14.055Z,24.73
2019-05-17T04:31:43.762Z,24.17
2019-05-17T04:34:22.476Z,23.93
2019-05-17T04:36:54.763Z,23.67
2019-05-17T04:39:24.516Z,23.97
2019-05-17T04:41:55.537Z,24.10
2019-05-17T04:44:25.070Z,23.17
2019-05-17T04:46:56.090Z,24.03
2019-05-17T04:49:26.387Z,22.63
2019-05-17T04:51:55.532Z,24.73
2019-05-17T04:57:08.868Z,24.23
2019-05-17T04:59:37.963Z,22.53
2019-05-17T05:02:07.119Z,24.33
2019-05-17T05:04:38.669Z,24.33
2019-05-17T05:07:08.129Z,24.47
2019-05-17T05:09:38.872Z,23.80
2019-05-17T05:12:08.206Z,24.30
2019-05-17T05:17:22.851Z,24.20
2019-05-17T05:19:54.644Z,23.70
2019-05-17T05:22:23.718Z,24.93
2019-05-17T05:25:02.331Z,21.73
2019-05-17T05:27:32.622Z,23.63
2019-05-17T05:30:03.067Z,22.20
2019-05-17T05:32:34.848Z,20.10
2019-05-17T05:37:52.601Z,21.57
2019-05-17T05:40:22.147Z,21.53
2019-05-17T05:42:51.639Z,20.97
2019-05-17T05:45:32.056Z,22.83
2019-05-17T05:48:01.827Z,22.07
2019-05-17T05:50:32.818Z,23.03
2019-05-17T05:53:04.070Z,22.07
2019-05-17T05:55:42.842Z,22.93
2019-05-17T05:58:12.656Z,20.73
2019-05-17T06:00:42.697Z,20.03
2019-05-17T06:03:12.717Z,21.50
2019-05-17T06:05:55.434Z,23.27
2019-05-17T06:08:34.599Z,22.70
2019-05-17T06:11:04.852Z,21.10
2019-05-17T06:13:34.765Z,20.93
2019-05-17T06:16:14.478Z,20.33
2019-05-17T06:18:45.146Z,20.07
2019-05-17T06:21:14.400Z,21.17
2019-05-17T06:23:43.586Z,19.73
2019-05-17T06:26:23.728Z,20.80
2019-05-17T06:28:53.230Z,18.27
2019-05-17T06:31:24.127Z,19.87
2019-05-17T06:33:54.166Z,19.90
2019-05-17T06:36:42.334Z,18.60
2019-05-17T06:39:17.536Z,19.83
2019-05-17T06:41:49.052Z,19.60
2019-05-17T06:44:21.623Z,18.87
2019-05-17T06:49:34.657Z,16.67
2019-05-17T06:52:05.902Z,16.00
2019-05-17T06:54:34.975Z,18.63
2019-05-17T06:57:13.334Z,18.30
2019-05-17T06:59:44.870Z,18.23
2019-05-17T07:02:19.734Z,18.73
2019-05-17T07:04:55.878Z,16.87
2019-05-17T07:10:11.152Z,16.90
2019-05-17T07:12:55.015Z,15.73
2019-05-17T07:15:19.819Z,16.60
2019-05-17T07:17:59.972Z,16.93
2019-05-17T07:21:10.045Z,16.17
2019-05-17T07:23:40.718Z,15.90
2019-05-17T07:33:53.327Z,13.80
2019-05-17T07:39:04.108Z,13.43
2019-05-17T07:41:33.174Z,13.33
2019-05-17T07:44:52.808Z,12.80
2019-05-17T07:48:53.289Z,11.70
2019-05-17T07:51:10.633Z,11.90
2019-05-17T07:53:54.297Z,11.80
2019-05-17T07:56:30.545Z,11.13
2019-05-17T07:59:09.416Z,10.97
2019-05-17T08:01:45.028Z,10.97
2019-05-17T08:04:13.963Z,12.27
2019-05-17T08:06:52.247Z,10.87
2019-05-17T08:15:24.092Z,9.57
2019-05-17T08:21:19.710Z,8.50
2019-05-17T08:24:42.949Z,10.30
2019-05-17T08:27:11.002Z,8.13
2019-05-17T08:29:40.484Z,6.77
2019-05-17T08:32:13.089Z,6.70
2019-05-17T08:34:55.221Z,6.73
2019-05-17T08:37:25.913Z,6.63
2019-05-17T08:40:15.934Z,6.57
2019-05-17T08:43:46.434Z,6.00
2019-05-17T08:46:19.776Z,5.90
2019-05-17T08:49:00.462Z,5.70
2019-05-17T08:51:30.658Z,5.03
2019-05-17T08:54:42.940Z,5.40
2019-05-17T09:04:42.470Z,4.83
2019-05-17T09:07:44.149Z,5.47
2019-05-17T09:10:44.191Z,4.90
2019-05-17T09:13:24.652Z,5.40
2019-05-17T09:19:40.471Z,5.40
2019-05-17T09:26:12.138Z,5.50
2019-05-17T09:28:50.596Z,5.20
2019-05-17T09:31:20.405Z,5.10
2019-05-17T09:33:51.494Z,5.07
2019-05-17T09:36:20.690Z,4.30
2019-05-17T09:39:12.534Z,4.20
2019-05-17T09:41:44.578Z,3.90
2019-05-17T09:44:16.411Z,3.20
2019-05-17T09:46:47.676Z,4.20
2019-05-17T09:49:25.800Z,3.87
2019-05-17T09:52:02.964Z,3.97
2019-05-17T09:54:42.304Z,3.40
2019-05-17T09:57:05.234Z,3.50
2019-05-17T09:59:45.344Z,4.20
2019-05-17T10:02:41.524Z,3.70
2019-05-17T10:06:03.101Z,3.67
2019-05-17T10:08:44.670Z,3.70
2019-05-17T10:11:14.131Z,3.87
2019-05-17T10:13:43.096Z,4.40
2019-05-17T10:16:13.047Z,4.00
2019-05-17T10:21:30.384Z,3.60
2019-05-17T10:24:00.255Z,3.40
2019-05-17T10:26:30.439Z,3.70
2019-05-17T10:29:15.122Z,4.07
2019-05-17T10:31:44.598Z,4.00
2019-05-17T10:34:14.109Z,4.50
2019-05-17T10:36:50.679Z,3.50
2019-05-17T10:39:29.758Z,3.80
2019-05-17T10:41:59.181Z,3.70
2019-05-17T10:44:42.650Z,3.40
2019-05-17T10:46:59.494Z,3.70
2019-05-17T10:49:40.918Z,3.60
2019-05-17T10:52:10.101Z,3.40
2019-05-17T10:55:00.341Z,3.60
2019-05-17T10:57:35.181Z,2.93
2019-05-17T11:02:50.479Z,2.97
2019-05-17T11:05:20.094Z,3.13
2019-05-17T11:07:50.441Z,3.47
2019-05-17T11:10:29.263Z,3.07
2019-05-17T11:12:59.367Z,3.40
2019-05-17T11:15:28.504Z,2.73
2019-05-17T11:17:57.907Z,3.52
2019-05-17T11:20:36.917Z,3.30
2019-05-17T11:23:08.642Z,3.10
2019-05-17T11:25:37.827Z,3.27
2019-05-17T11:28:48.910Z,3.30
2019-05-17T11:31:47.717Z,2.87
2019-05-17T11:34:18.121Z,3.00
2019-05-17T11:36:53.646Z,2.70
2019-05-17T11:42:06.849Z,2.83
2019-05-17T11:45:26.691Z,3.05
2019-05-17T11:47:33.243Z,3.03
2019-05-17T11:50:42.266Z,2.60
2019-05-17T11:53:07.800Z,2.83
2019-05-17T11:56:14.963Z,2.77
2019-05-17T11:58:59.271Z,3.07
2019-05-17T12:01:28.713Z,2.90
2019-05-17T12:25:05.416Z,2.47
2019-05-17T12:27:37.486Z,2.67
2019-05-17T12:30:41.023Z,2.60
2019-05-17T12:33:14.214Z,2.23
2019-05-17T12:36:02.665Z,2.63
2019-05-17T12:42:28.028Z,2.20
2019-05-17T12:49:25.785Z,2.50
2019-05-17T12:58:50.481Z,2.40
2019-05-17T13:01:28.419Z,2.80
2019-05-17T13:04:02.377Z,2.97
2019-05-17T13:06:33.192Z,2.37
2019-05-17T13:09:02.641Z,2.57
2019-05-17T13:11:40.993Z,2.50
2019-05-17T13:14:10.217Z,2.67
2019-05-17T13:16:39.545Z,2.10
2019-05-17T13:19:08.684Z,2.47
2019-05-17T13:21:39.502Z,2.80
2019-05-17T13:24:11.406Z,2.50
2019-05-17T13:26:40.523Z,2.80
2019-05-17T13:29:12.502Z,2.30
2019-05-17T13:31:55.946Z,2.50
2019-05-17T13:34:27.211Z,2.23
2019-05-17T13:36:56.702Z,2.10
2019-05-17T13:39:41.464Z,2.47
2019-05-17T13:42:10.502Z,2.10
2019-05-17T13:44:42.071Z,2.10
2019-05-17T13:47:11.071Z,2.00
2019-05-17T13:49:50.413Z,1.67
2019-05-17T13:52:19.913Z,1.80
2019-05-17T13:54:49.442Z,1.70
2019-05-17T13:57:18.607Z,1.70
2019-05-17T14:00:42.501Z,2.60
2019-05-17T14:03:22.059Z,2.30
2019-05-17T14:05:57.636Z,2.00
2019-05-17T14:08:27.020Z,2.53
2019-05-17T14:13:40.462Z,2.00
2019-05-17T14:16:09.674Z,1.90
2019-05-17T14:18:39.100Z,1.70
2019-05-17T14:21:19.447Z,1.90
2019-05-17T14:23:48.548Z,1.67
2019-05-17T14:26:20.044Z,1.90
2019-05-17T14:28:58.353Z,1.47
2019-05-17T14:31:52.198Z,1.90
2019-05-17T14:34:28.568Z,1.63
2019-05-17T14:36:58.044Z,2.33
2019-05-17T18:53:45.452Z,2.30
2019-05-17T18:56:14.487Z,2.60
2019-05-17T18:58:44.184Z,3.17
2019-05-17T19:01:14.008Z,2.60
2019-05-17T19:03:52.339Z,2.80
2019-05-17T19:06:21.493Z,2.57
2019-05-17T19:08:51.583Z,2.73
2019-05-17T19:11:26.076Z,2.50
2019-05-17T19:17:19.438Z,2.80
2019-05-17T19:23:33.949Z,2.93
2019-05-17T19:26:07.750Z,3.13
2019-05-17T19:28:37.137Z,3.03
2019-05-17T19:31:06.395Z,3.17
2019-05-17T19:33:45.328Z,3.13
2019-05-17T19:36:14.687Z,2.93
2019-05-17T19:38:44.607Z,2.57
2019-05-17T19:41:13.678Z,2.87
2019-05-17T19:43:51.629Z,2.93
2019-05-17T19:46:20.817Z,3.13
2019-05-17T19:48:50.225Z,2.87
2019-05-17T19:51:20.490Z,2.87
2019-05-17T19:54:16.529Z,3.10
2019-05-17T19:56:57.656Z,3.30
2019-05-17T19:59:29.423Z,2.90
2019-05-17T20:02:06.406Z,3.40
2019-05-17T20:04:59.634Z,2.60
2019-05-17T20:08:03.132Z,3.23
2019-05-17T20:10:35.178Z,3.00
2019-05-17T20:14:02.403Z,3.20
2019-05-17T20:16:15.273Z,3.50
2019-05-17T20:18:46.630Z,3.00
2019-05-17T20:21:16.102Z,3.17
2019-05-17T20:24:00.711Z,3.17
2019-05-17T20:26:31.923Z,3.03
2019-05-17T20:29:01.077Z,3.17
2019-05-17T20:31:30.457Z,3.13
2019-05-17T20:34:08.283Z,3.70
2019-05-17T20:36:37.450Z,2.93
2019-05-17T20:39:07.430Z,3.90
2019-05-17T20:41:36.547Z,3.57
2019-05-17T20:44:14.795Z,3.30
2019-05-17T20:46:43.973Z,3.40
2019-05-17T20:49:13.009Z,3.20
2019-05-17T20:51:44.701Z,3.57
2019-05-17T20:54:22.870Z,3.10
2019-05-17T20:56:51.829Z,3.40
2019-05-17T20:59:21.078Z,3.83
2019-05-17T21:01:50.130Z,3.73
2019-05-17T21:07:05.033Z,3.07
2019-05-17T21:09:34.091Z,3.50
2019-05-17T21:12:03.101Z,3.63
2019-05-17T21:14:43.842Z,3.43
2019-05-17T21:17:12.770Z,3.43
2019-05-17T21:19:43.231Z,3.20
2019-05-17T21:22:15.350Z,3.77
2019-05-17T21:24:53.587Z,3.30
2019-05-17T21:27:23.450Z,3.67
2019-05-17T21:29:52.873Z,3.50
2019-05-17T21:32:22.237Z,3.60
2019-05-17T21:35:00.442Z,3.40
2019-05-17T21:37:29.732Z,3.17
2019-05-17T21:39:59.193Z,3.83
2019-05-17T21:42:28.273Z,3.77
2019-05-17T21:45:18.658Z,3.80
2019-05-17T21:47:48.061Z,3.60
2019-05-17T21:50:18.836Z,3.73
2019-05-17T21:52:48.086Z,3.43
2019-05-17T21:55:28.554Z,3.57
2019-05-17T22:01:26.857Z,3.50
2019-05-17T22:04:03.178Z,3.50
2019-05-17T22:06:48.017Z,3.50
2019-05-17T22:09:17.107Z,3.73
2019-05-17T22:11:48.519Z,4.10
2019-05-17T22:14:20.209Z,3.97
2019-05-17T22:16:58.092Z,3.60
2019-05-17T22:19:33.181Z,3.93
2019-05-17T22:22:02.599Z,4.07
2019-05-17T22:24:34.993Z,4.10
2019-05-17T22:27:13.443Z,3.93
2019-05-17T22:29:42.376Z,3.97
2019-05-17T22:32:14.681Z,3.80
2019-05-17T22:34:43.984Z,3.60
2019-05-17T22:37:22.469Z,3.50
2019-05-17T22:39:51.493Z,4.03
2019-05-17T22:42:20.396Z,3.63
2019-05-17T22:44:51.893Z,3.60
2019-05-17T22:47:44.823Z,4.23
2019-05-17T22:50:13.946Z,3.80
2019-05-17T22:52:42.881Z,3.80
2019-05-17T22:55:12.877Z,4.03
2019-05-17T23:00:21.950Z,3.83
2019-05-17T23:02:50.851Z,3.53
2019-05-17T23:05:26.293Z,4.17
2019-05-17T23:08:05.258Z,3.63
2019-05-17T23:10:35.997Z,4.40
2019-05-17T23:13:05.570Z,4.10
2019-05-17T23:15:56.741Z,3.83
2019-05-17T23:18:25.958Z,3.93
2019-05-17T23:20:56.203Z,4.07
2019-05-17T23:23:27.959Z,4.13
2019-05-17T23:28:40.722Z,4.10
2019-05-17T23:31:09.801Z,4.13
2019-05-17T23:33:42.486Z,3.67
2019-05-17T23:36:21.167Z,3.93
2019-05-17T23:38:50.439Z,4.07
2019-05-17T23:41:19.541Z,4.37
2019-05-17T23:43:49.008Z,4.17
2019-05-17T23:49:01.728Z,4.37
2019-05-17T23:51:31.134Z,4.40
2019-05-17T23:54:00.270Z,4.00
2019-05-17T23:56:38.361Z,4.03
2019-05-17T23:59:07.538Z,4.53
